createdAt,value
2023-02-21T00:02:03.060Z,2.97
2023-02-21T00:04:48.734Z,2.13
2023-02-21T00:07:34.280Z,3.07
2023-02-21T00:10:19.853Z,2.53
2023-02-21T00:13:06.022Z,1.50
2023-02-21T00:15:51.521Z,3.50
2023-02-21T00:18:37.334Z,2.50
2023-02-21T00:21:23.659Z,2.00
2023-02-21T00:24:09.244Z,2.97
2023-02-21T00:26:54.996Z,2.00
2023-02-21T00:29:40.472Z,2.73
2023-02-21T00:32:26.279Z,2.67
2023-02-21T00:35:12.009Z,3.37
2023-02-21T00:37:57.452Z,3.37
2023-02-21T00:40:43.214Z,2.33
2023-02-21T00:43:28.798Z,2.07
2023-02-21T00:46:14.451Z,2.10
2023-02-21T00:49:00.116Z,2.10
2023-02-21T00:51:45.720Z,2.17
2023-02-21T00:54:31.412Z,3.00
2023-02-21T00:57:16.970Z,2.77
2023-02-21T01:00:02.780Z,2.03
2023-02-21T01:02:48.274Z,4.17
2023-02-21T01:05:33.916Z,2.53
2023-02-21T01:08:19.561Z,3.03
2023-02-21T01:11:05.065Z,5.20
2023-02-21T01:13:50.667Z,4.67
2023-02-21T01:16:36.399Z,3.53
2023-02-21T01:19:21.828Z,2.60
2023-02-21T01:22:07.485Z,2.80
2023-02-21T01:24:53.090Z,3.70
2023-02-21T01:27:38.730Z,2.37
2023-02-21T01:30:24.681Z,2.17
2023-02-21T01:33:10.308Z,5.10
2023-02-21T01:35:56.046Z,5.03
2023-02-21T01:38:41.661Z,2.47
2023-02-21T01:41:27.043Z,2.80
2023-02-21T01:44:45.098Z,2.37
2023-02-21T01:47:31.690Z,3.30
2023-02-21T01:50:19.865Z,1.70
2023-02-21T01:53:07.425Z,2.90
2023-02-21T01:55:55.103Z,2.33
2023-02-21T01:58:43.247Z,2.40
2023-02-21T02:01:34.891Z,3.00
2023-02-21T02:04:21.323Z,2.30
2023-02-21T02:07:07.011Z,1.63
2023-02-21T02:09:52.594Z,4.00
2023-02-21T02:12:57.368Z,2.73
2023-02-21T02:15:24.301Z,2.90
2023-02-21T02:17:54.266Z,2.53
2023-02-21T02:20:33.578Z,2.80
2023-02-21T02:23:12.095Z,1.40
2023-02-21T02:25:59.946Z,2.40
2023-02-21T02:28:56.876Z,1.87
2023-02-21T02:31:38.609Z,2.37
2023-02-21T02:34:24.305Z,0.97
2023-02-21T02:36:57.853Z,2.17
2023-02-21T02:39:33.162Z,1.03
2023-02-21T02:42:00.005Z,1.30
2023-02-21T02:44:39.287Z,1.20
2023-02-21T02:47:10.902Z,0.77
2023-02-21T02:49:42.832Z,1.50
2023-02-21T02:52:10.594Z,0.77
2023-02-21T02:54:37.518Z,0.80
2023-02-21T02:57:10.639Z,1.07
2023-02-21T02:59:41.061Z,1.23
2023-02-21T03:02:19.901Z,1.77
2023-02-21T03:05:11.304Z,0.73
2023-02-21T03:07:47.257Z,1.33
2023-02-21T03:10:22.633Z,2.30
2023-02-21T03:12:58.338Z,1.07
2023-02-21T03:15:36.218Z,0.93
2023-02-21T03:18:18.056Z,1.20
2023-02-21T03:20:50.647Z,1.00
2023-02-21T03:23:19.276Z,0.80
2023-02-21T03:25:48.424Z,1.13
2023-02-21T03:28:16.323Z,1.27
2023-02-21T03:30:46.009Z,0.50
2023-02-21T03:33:12.888Z,0.73
2023-02-21T03:35:39.779Z,1.20
2023-02-21T03:38:06.655Z,1.17
2023-02-21T03:40:34.901Z,2.20
2023-02-21T03:43:05.397Z,1.73
2023-02-21T03:45:32.226Z,1.50
2023-02-21T03:47:59.193Z,1.23
2023-02-21T03:50:26.180Z,1.10
2023-02-21T03:52:53.325Z,1.00
2023-02-21T03:55:20.565Z,0.90
2023-02-21T03:57:47.468Z,1.30
2023-02-21T04:00:14.949Z,1.40
2023-02-21T04:02:42.003Z,0.87
2023-02-21T04:05:09.036Z,1.47
2023-02-21T04:07:36.102Z,2.33
2023-02-21T04:10:03.412Z,1.37
2023-02-21T04:12:30.331Z,2.97
2023-02-21T04:14:58.762Z,1.10
2023-02-21T04:17:26.220Z,1.40
2023-02-21T04:19:53.326Z,2.50
2023-02-21T04:22:20.194Z,2.87
2023-02-21T04:24:48.271Z,1.43
2023-02-21T04:27:16.103Z,1.57
2023-02-21T04:29:43.109Z,1.90
2023-02-21T04:32:11.191Z,2.60
2023-02-21T04:34:38.228Z,3.33
2023-02-21T04:37:05.276Z,2.03
2023-02-21T04:39:32.241Z,2.70
2023-02-21T04:41:59.110Z,3.03
2023-02-21T04:44:26.011Z,1.97
2023-02-21T04:46:52.928Z,3.43
2023-02-21T04:49:19.833Z,2.23
2023-02-21T04:51:46.688Z,3.67
2023-02-21T04:54:14.148Z,3.30
2023-02-21T04:56:41.213Z,4.40
2023-02-21T04:59:08.148Z,2.90
2023-02-21T05:01:35.093Z,3.23
2023-02-21T05:04:02.095Z,3.43
2023-02-21T05:06:30.612Z,3.60
2023-02-21T05:08:58.451Z,3.77
2023-02-21T05:11:26.255Z,3.87
2023-02-21T05:13:53.291Z,4.07
2023-02-21T05:16:20.663Z,3.30
2023-02-21T05:18:48.958Z,4.50
2023-02-21T05:21:18.579Z,3.70
2023-02-21T05:23:56.161Z,6.27
2023-02-21T05:26:29.959Z,6.77
2023-02-21T05:28:57.142Z,6.60
2023-02-21T05:31:24.196Z,8.10
2023-02-21T05:33:51.202Z,4.30
2023-02-21T05:36:18.303Z,6.13
2023-02-21T05:38:50.493Z,6.67
2023-02-21T05:41:18.180Z,6.73
2023-02-21T05:43:46.844Z,6.50
2023-02-21T05:46:32.163Z,6.27
2023-02-21T05:49:00.727Z,5.37
2023-02-21T05:51:28.615Z,5.83
2023-02-21T05:53:55.580Z,5.70
2023-02-21T05:56:22.792Z,4.73
2023-02-21T05:58:49.921Z,6.43
2023-02-21T06:01:17.364Z,5.90
2023-02-21T06:03:44.482Z,7.00
2023-02-21T06:06:11.607Z,4.97
2023-02-21T06:08:49.192Z,4.87
2023-02-21T06:11:22.439Z,6.17
2023-02-21T06:13:56.161Z,5.60
2023-02-21T06:16:23.995Z,5.43
2023-02-21T06:18:53.706Z,5.53
2023-02-21T06:21:20.813Z,5.43
2023-02-21T06:23:47.947Z,7.33
2023-02-21T06:26:15.855Z,8.70
2023-02-21T06:28:42.841Z,5.23
2023-02-21T06:31:10.052Z,7.17
2023-02-21T06:33:37.440Z,8.30
2023-02-21T06:36:12.089Z,7.93
2023-02-21T06:38:39.286Z,6.27
2023-02-21T06:41:09.723Z,5.27
2023-02-21T06:43:37.000Z,5.53
2023-02-21T06:46:04.700Z,10.33
2023-02-21T06:48:32.118Z,7.07
2023-02-21T06:50:59.126Z,7.40
2023-02-21T06:53:26.071Z,6.43
2023-02-21T06:55:53.267Z,6.10
2023-02-21T06:58:20.212Z,7.63
2023-02-21T07:00:47.109Z,8.23
2023-02-21T07:03:13.942Z,7.03
2023-02-21T07:05:40.766Z,8.17
2023-02-21T07:08:07.594Z,8.37
2023-02-21T07:10:34.572Z,5.93
2023-02-21T07:13:01.496Z,5.97
2023-02-21T07:15:28.656Z,7.33
2023-02-21T07:17:55.610Z,7.73
2023-02-21T07:20:22.467Z,6.37
2023-02-21T07:22:49.372Z,7.23
2023-02-21T07:25:20.137Z,5.57
2023-02-21T07:27:48.089Z,7.67
2023-02-21T07:30:15.989Z,5.93
2023-02-21T07:32:43.293Z,5.60
2023-02-21T07:35:10.209Z,6.87
2023-02-21T07:37:37.060Z,5.93
2023-02-21T07:40:07.095Z,3.53
2023-02-21T07:42:34.721Z,4.50
2023-02-21T07:45:01.838Z,4.38
2023-02-21T07:47:28.912Z,4.47
2023-02-21T07:49:55.934Z,4.38
2023-02-21T07:52:23.002Z,3.38
2023-02-21T07:54:50.183Z,4.70
2023-02-21T07:57:18.739Z,4.72
2023-02-21T07:59:45.610Z,3.75
2023-02-21T08:02:12.919Z,3.95
2023-02-21T08:04:40.831Z,4.20
2023-02-21T08:07:08.440Z,4.50
2023-02-21T08:09:36.620Z,3.90
2023-02-21T08:12:03.911Z,4.47
2023-02-21T08:14:30.749Z,4.57
2023-02-21T08:16:57.597Z,5.63
2023-02-21T08:19:24.531Z,4.00
2023-02-21T08:21:51.632Z,4.33
2023-02-21T08:24:19.315Z,4.20
2023-02-21T08:26:46.789Z,3.70
2023-02-21T08:29:15.443Z,4.47
2023-02-21T08:31:44.496Z,5.30
2023-02-21T08:34:12.450Z,4.47
2023-02-21T08:36:42.122Z,3.23
2023-02-21T08:39:10.625Z,4.97
2023-02-21T08:41:38.487Z,3.00
2023-02-21T08:44:06.820Z,4.03
2023-02-21T08:46:33.815Z,4.10
2023-02-21T08:49:01.800Z,4.47
2023-02-21T08:51:30.315Z,2.50
2023-02-21T08:53:57.266Z,3.23
2023-02-21T08:56:25.210Z,3.00
2023-02-21T08:58:54.579Z,3.80
2023-02-21T09:01:22.219Z,2.80
2023-02-21T09:03:49.254Z,2.43
2023-02-21T09:06:17.322Z,3.13
2023-02-21T09:08:44.471Z,2.13
2023-02-21T09:11:11.438Z,3.33
2023-02-21T09:13:38.379Z,2.17
2023-02-21T09:16:05.535Z,1.80
2023-02-21T09:18:33.513Z,1.63
2023-02-21T09:21:00.721Z,3.53
2023-02-21T09:23:30.180Z,1.87
2023-02-21T09:25:57.401Z,1.50
2023-02-21T09:28:24.680Z,2.10
2023-02-21T09:30:51.956Z,1.53
2023-02-21T09:33:19.162Z,1.80
2023-02-21T09:35:46.137Z,2.03
2023-02-21T09:38:13.121Z,1.23
2023-02-21T09:40:45.779Z,2.73
2023-02-21T09:43:48.383Z,2.10
2023-02-21T09:46:29.042Z,1.97
2023-02-21T09:48:56.455Z,2.10
2023-02-21T09:51:25.277Z,1.97
2023-02-21T09:53:55.884Z,2.30
2023-02-21T09:56:34.794Z,1.77
2023-02-21T09:59:02.003Z,2.57
2023-02-21T10:01:40.905Z,2.47
2023-02-21T10:04:38.615Z,2.30
2023-02-21T10:07:17.210Z,1.80
2023-02-21T10:10:00.357Z,2.60
2023-02-21T10:12:38.586Z,2.10
2023-02-21T10:15:12.137Z,2.47
2023-02-21T10:17:48.615Z,1.87
2023-02-21T10:20:30.611Z,2.13
2023-02-21T10:22:57.890Z,3.07
2023-02-21T10:25:32.537Z,1.83
2023-02-21T10:28:00.546Z,2.33
2023-02-21T10:30:36.459Z,2.10
2023-02-21T10:33:06.816Z,2.13
2023-02-21T10:35:35.694Z,2.72
2023-02-21T10:38:06.801Z,2.10
2023-02-21T10:40:44.553Z,1.95
2023-02-21T10:43:14.411Z,2.50
2023-02-21T10:46:16.341Z,2.63
2023-02-21T10:48:45.103Z,2.40
2023-02-21T10:51:15.737Z,3.00
2023-02-21T10:53:47.510Z,1.63
2023-02-21T10:56:20.303Z,1.40
2023-02-21T10:58:57.477Z,1.70
2023-02-21T11:01:27.411Z,1.77
2023-02-21T11:04:01.385Z,2.07
2023-02-21T11:06:31.381Z,2.23
2023-02-21T11:08:59.185Z,2.00
2023-02-21T11:11:39.614Z,2.07
2023-02-21T11:14:18.977Z,1.80
2023-02-21T11:16:45.873Z,2.00
2023-02-21T11:19:14.753Z,2.30
2023-02-21T11:21:45.408Z,3.90
2023-02-21T11:24:12.777Z,2.60
2023-02-21T11:26:52.473Z,2.70
2023-02-21T11:29:24.235Z,2.90
2023-02-21T11:31:52.715Z,3.10
2023-02-21T11:34:20.488Z,2.70
2023-02-21T11:36:49.653Z,3.07
2023-02-21T11:39:23.803Z,2.60
2023-02-21T11:41:55.841Z,2.97
2023-02-21T11:44:36.430Z,2.63
2023-02-21T11:47:23.775Z,3.20
2023-02-21T11:49:52.166Z,2.50
2023-02-21T11:52:36.926Z,3.47
2023-02-21T11:55:11.882Z,2.23
2023-02-21T11:58:02.488Z,1.97
2023-02-21T12:01:07.114Z,3.80
2023-02-21T12:03:52.724Z,2.20
2023-02-21T12:06:43.548Z,3.17
2023-02-21T12:09:25.592Z,2.87
2023-02-21T12:12:18.379Z,3.10
2023-02-21T12:15:01.569Z,3.40
2023-02-21T12:17:55.026Z,3.70
2023-02-21T12:21:07.243Z,2.80
2023-02-21T12:23:41.457Z,2.13
2023-02-21T12:26:08.550Z,2.27
2023-02-21T12:29:03.275Z,2.00
2023-02-21T12:31:51.616Z,1.80
2023-02-21T12:34:38.940Z,1.77
2023-02-21T12:37:30.172Z,1.50
2023-02-21T12:40:39.276Z,2.67
2023-02-21T12:43:27.667Z,1.80
2023-02-21T12:46:17.696Z,2.50
2023-02-21T12:48:48.543Z,1.50
2023-02-21T12:51:20.053Z,1.43
2023-02-21T12:54:27.958Z,1.40
2023-02-21T12:57:01.717Z,1.53
2023-02-21T12:59:51.845Z,1.47
2023-02-21T13:02:25.293Z,1.30
2023-02-21T13:04:52.232Z,2.00
2023-02-21T13:07:35.337Z,3.03
2023-02-21T13:10:21.700Z,4.40
2023-02-21T13:13:01.002Z,1.10
2023-02-21T13:15:30.060Z,0.90
2023-02-21T13:18:07.573Z,1.20
2023-02-21T13:20:45.159Z,0.80
2023-02-21T13:23:51.732Z,1.60
2023-02-21T13:26:27.797Z,1.07
2023-02-21T13:28:56.728Z,2.27
2023-02-21T13:31:56.983Z,1.00
2023-02-21T13:34:28.625Z,0.93
2023-02-21T13:37:06.463Z,1.87
2023-02-21T13:39:37.614Z,2.43
2023-02-21T13:42:18.207Z,1.77
2023-02-21T13:44:53.811Z,2.93
2023-02-21T13:47:22.859Z,1.40
2023-02-21T13:49:54.130Z,0.70
2023-02-21T13:52:23.657Z,1.20
2023-02-21T13:55:11.620Z,2.73
2023-02-21T13:57:41.666Z,1.10
2023-02-21T14:00:27.683Z,1.20
2023-02-21T14:03:00.216Z,2.00
2023-02-21T14:05:47.226Z,1.20
2023-02-21T14:08:43.831Z,1.13
2023-02-21T14:11:20.733Z,2.40
2023-02-21T14:13:54.691Z,4.63
2023-02-21T14:16:46.282Z,2.60
2023-02-21T14:19:26.490Z,1.90
2023-02-21T14:22:27.137Z,2.23
2023-02-21T14:25:07.504Z,2.10
2023-02-21T14:27:37.692Z,3.87
2023-02-21T14:30:10.799Z,2.20
2023-02-21T14:32:50.498Z,2.70
2023-02-21T14:35:20.332Z,3.27
2023-02-21T14:37:53.280Z,2.60
2023-02-21T14:40:28.662Z,3.70
2023-02-21T14:43:07.437Z,3.10
2023-02-21T14:46:11.360Z,4.97
2023-02-21T14:48:46.824Z,6.27
2023-02-21T14:51:39.659Z,3.93
2023-02-21T14:54:12.083Z,2.77
2023-02-21T14:56:53.382Z,2.87
2023-02-21T14:59:30.513Z,2.53
2023-02-21T15:02:27.947Z,2.33
2023-02-21T15:05:04.372Z,2.50
2023-02-21T15:07:45.411Z,3.10
2023-02-21T15:10:20.862Z,3.50
2023-02-21T15:12:53.379Z,4.53
2023-02-21T15:15:43.737Z,2.73
2023-02-21T15:18:11.904Z,3.00
2023-02-21T15:20:42.984Z,5.87
2023-02-21T15:23:20.957Z,4.83
2023-02-21T15:25:55.595Z,3.40
2023-02-21T15:28:29.367Z,3.80
2023-02-21T15:31:06.235Z,3.00
2023-02-21T15:33:39.169Z,3.80
2023-02-21T15:36:26.983Z,4.23
2023-02-21T15:39:27.685Z,2.60
2023-02-21T15:42:00.118Z,3.10
2023-02-21T15:44:29.473Z,2.70
2023-02-21T15:47:02.154Z,3.13
2023-02-21T15:49:36.801Z,2.93
2023-02-21T15:52:04.971Z,3.33
2023-02-21T15:54:34.275Z,4.30
2023-02-21T15:57:11.543Z,3.50
2023-02-21T15:59:39.695Z,4.23
2023-02-21T16:02:15.543Z,4.47
2023-02-21T16:04:48.135Z,5.50
2023-02-21T16:07:40.223Z,3.53
2023-02-21T16:10:10.295Z,3.33
2023-02-21T16:12:43.840Z,3.80
2023-02-21T16:15:28.338Z,3.90
2023-02-21T16:18:18.653Z,3.70
2023-02-21T16:20:46.126Z,2.77
2023-02-21T16:23:34.314Z,3.17
2023-02-21T16:26:27.280Z,2.73
2023-02-21T16:28:58.572Z,1.83
2023-02-21T16:31:31.565Z,2.57
2023-02-21T16:33:58.748Z,2.77
2023-02-21T16:36:28.533Z,2.63
2023-02-21T16:38:57.210Z,2.23
2023-02-21T16:41:24.622Z,2.70
2023-02-21T16:43:51.548Z,2.77
2023-02-21T16:46:30.090Z,2.97
2023-02-21T16:48:58.984Z,3.73
2023-02-21T16:51:26.204Z,2.70
2023-02-21T16:53:53.041Z,3.90
2023-02-21T16:56:20.148Z,4.67
2023-02-21T16:58:50.481Z,6.90
2023-02-21T17:01:28.120Z,7.33
2023-02-21T17:03:55.225Z,6.13
2023-02-21T17:06:24.606Z,5.20
2023-02-21T17:08:51.890Z,5.67
2023-02-21T17:11:19.086Z,3.50
2023-02-21T17:13:46.097Z,5.63
2023-02-21T17:16:13.172Z,3.97
2023-02-21T17:18:40.224Z,4.60
2023-02-21T17:21:07.080Z,5.43
2023-02-21T17:23:33.991Z,5.03
2023-02-21T17:26:00.895Z,6.90
2023-02-21T17:28:27.859Z,8.07
2023-02-21T17:30:54.760Z,9.43
2023-02-21T17:33:22.379Z,8.97
2023-02-21T17:35:49.236Z,9.13
2023-02-21T17:38:16.089Z,8.23
2023-02-21T17:40:42.920Z,8.30
2023-02-21T17:43:09.849Z,10.13
2023-02-21T17:45:36.957Z,5.87
2023-02-21T17:48:05.658Z,5.07
2023-02-21T17:50:32.778Z,5.93
2023-02-21T17:52:59.692Z,5.93
2023-02-21T17:55:27.160Z,5.73
2023-02-21T17:57:53.977Z,7.93
2023-02-21T18:00:27.159Z,14.50
2023-02-21T18:02:55.705Z,10.17
2023-02-21T18:05:23.324Z,9.23
2023-02-21T18:07:52.325Z,6.27
2023-02-21T18:10:22.224Z,8.00
2023-02-21T18:12:51.157Z,5.90
2023-02-21T18:15:21.157Z,4.23
2023-02-21T18:17:48.083Z,4.10
2023-02-21T18:20:18.381Z,6.40
2023-02-21T18:22:45.442Z,9.70
2023-02-21T18:25:14.654Z,7.37
2023-02-21T18:27:41.563Z,10.93
2023-02-21T18:30:09.187Z,10.23
2023-02-21T18:32:36.361Z,12.00
2023-02-21T18:35:03.333Z,8.00
2023-02-21T18:37:30.184Z,11.13
2023-02-21T18:39:57.066Z,15.20
2023-02-21T18:42:24.248Z,13.33
2023-02-21T18:44:51.657Z,13.77
2023-02-21T18:47:19.631Z,10.43
2023-02-21T18:49:52.736Z,9.63
2023-02-21T18:52:20.284Z,14.87
2023-02-21T18:54:49.660Z,13.27
2023-02-21T18:57:21.642Z,17.57
2023-02-21T18:59:48.966Z,16.27
2023-02-21T19:02:18.757Z,12.40
2023-02-21T19:04:46.574Z,15.40
2023-02-21T19:07:16.899Z,16.40
2023-02-21T19:09:46.923Z,14.23
2023-02-21T19:12:13.806Z,16.03
2023-02-21T19:14:40.687Z,12.47
2023-02-21T19:17:09.422Z,12.37
2023-02-21T19:19:37.406Z,10.43
2023-02-21T19:22:05.631Z,13.50
2023-02-21T19:24:32.851Z,12.90
2023-02-21T19:27:00.025Z,15.07
2023-02-21T19:29:26.870Z,9.23
2023-02-21T19:31:54.308Z,14.00
2023-02-21T19:34:21.321Z,19.13
2023-02-21T19:36:49.190Z,19.80
2023-02-21T19:39:16.333Z,19.30
2023-02-21T19:41:43.345Z,15.87
2023-02-21T19:44:10.330Z,22.40
2023-02-21T19:46:37.208Z,18.87
2023-02-21T19:49:07.133Z,24.60
2023-02-21T19:51:34.404Z,22.97
2023-02-21T19:54:01.829Z,21.10
2023-02-21T19:56:29.096Z,19.70
2023-02-21T19:58:56.493Z,15.20
2023-02-21T20:01:25.390Z,15.93
2023-02-21T20:03:52.844Z,12.03
2023-02-21T20:06:20.370Z,14.60
2023-02-21T20:08:48.627Z,8.50
2023-02-21T20:11:19.893Z,15.33
2023-02-21T20:13:46.914Z,12.60
2023-02-21T20:16:15.629Z,17.47
2023-02-21T20:18:43.645Z,12.83
2023-02-21T20:21:17.630Z,17.27
2023-02-21T20:23:44.806Z,16.10
2023-02-21T20:26:13.248Z,15.33
2023-02-21T20:28:40.671Z,17.87
2023-02-21T20:31:11.207Z,14.00
2023-02-21T20:33:38.878Z,15.53
2023-02-21T20:36:06.874Z,13.87
2023-02-21T20:38:34.055Z,16.13
2023-02-21T20:41:00.964Z,12.77
2023-02-21T20:43:27.907Z,12.73
2023-02-21T20:45:55.016Z,13.13
2023-02-21T20:48:25.710Z,15.40
2023-02-21T20:50:53.937Z,14.47
2023-02-21T20:53:20.875Z,14.30
2023-02-21T20:55:48.390Z,15.73
2023-02-21T20:58:15.295Z,13.20
2023-02-21T21:00:42.992Z,15.13
2023-02-21T21:03:12.186Z,10.33
2023-02-21T21:05:40.168Z,10.13
2023-02-21T21:08:08.972Z,13.80
2023-02-21T21:10:37.525Z,12.23
2023-02-21T21:13:04.970Z,10.53
2023-02-21T21:15:31.956Z,13.27
2023-02-21T21:17:58.992Z,15.37
2023-02-21T21:20:27.165Z,14.33
2023-02-21T21:22:54.119Z,14.87
2023-02-21T21:25:22.935Z,16.33
2023-02-21T21:27:49.998Z,16.87
2023-02-21T21:30:22.762Z,17.70
2023-02-21T21:32:50.002Z,15.97
2023-02-21T21:35:19.872Z,21.03
2023-02-21T21:37:47.557Z,18.33
2023-02-21T21:40:18.026Z,19.50
2023-02-21T21:42:48.981Z,13.97
2023-02-21T21:45:24.846Z,20.20
2023-02-21T21:47:54.374Z,17.63
2023-02-21T21:50:22.540Z,18.27
2023-02-21T21:52:58.915Z,18.20
2023-02-21T21:55:29.358Z,19.03
2023-02-21T21:57:58.881Z,15.77
2023-02-21T22:00:27.977Z,17.93
2023-02-21T22:02:57.640Z,14.97
2023-02-21T22:05:35.442Z,19.70
2023-02-21T22:08:02.722Z,14.60
2023-02-21T22:10:29.900Z,18.00
2023-02-21T22:12:59.964Z,17.90
2023-02-21T22:15:29.218Z,15.80
2023-02-21T22:17:56.632Z,14.60
2023-02-21T22:20:31.310Z,15.17
2023-02-21T22:22:59.294Z,13.97
2023-02-21T22:25:28.353Z,19.53
2023-02-21T22:27:55.337Z,16.30
2023-02-21T22:30:23.218Z,15.77
2023-02-21T22:32:50.638Z,16.87
2023-02-21T22:35:19.948Z,12.80
2023-02-21T22:37:50.600Z,15.93
2023-02-21T22:40:24.317Z,16.70
2023-02-21T22:42:55.912Z,17.23
2023-02-21T22:45:24.146Z,19.77
2023-02-21T22:47:52.512Z,19.47
2023-02-21T22:50:21.593Z,14.00
2023-02-21T22:52:55.122Z,15.57
2023-02-21T22:55:25.972Z,15.07
2023-02-21T22:57:57.174Z,13.77
2023-02-21T23:00:33.141Z,13.40
2023-02-21T23:03:13.673Z,15.10
2023-02-21T23:05:51.511Z,15.63
2023-02-21T23:08:21.117Z,15.60
2023-02-21T23:10:48.574Z,11.20
2023-02-21T23:13:23.048Z,13.13
2023-02-21T23:15:51.387Z,12.23
2023-02-21T23:18:23.192Z,16.20
2023-02-21T23:20:53.143Z,16.10
2023-02-21T23:23:21.570Z,15.40
2023-02-21T23:25:49.013Z,13.53
2023-02-21T23:28:16.650Z,13.37
2023-02-21T23:30:43.665Z,13.97
2023-02-21T23:33:17.405Z,17.20
2023-02-21T23:35:52.072Z,18.63
2023-02-21T23:38:22.739Z,17.07
2023-02-21T23:40:56.306Z,16.40
2023-02-21T23:43:31.020Z,15.13
2023-02-21T23:45:58.857Z,14.33
2023-02-21T23:48:26.343Z,18.93
2023-02-21T23:50:57.756Z,18.20
2023-02-21T23:53:26.780Z,20.17
2023-02-21T23:55:57.794Z,17.20
2023-02-21T23:58:31.670Z,16.67
